Time,TemperatureF,DewpointF,PressureIn,WindDirection,WindDirectionDegrees,WindSpeedMPH,WindSpeedGustMPH,Humidity,HourlyPrecipIn,Conditions,Clouds,dailyrainin,SoftwareType,DateUTC
2013-02-16 00:03:00,37.0,31.4,29.87,SW,225,1.7,-999.0,80,-99.99,,,0.00,Acu-Link.com,2013-02-16 05:03:00,
2013-02-16 00:18:00,37.0,31.4,29.87,SW,225,0.0,-999.0,80,-99.99,,,0.00,Acu-Link.com,2013-02-16 05:18:00,
2013-02-16 00:33:00,36.1,31.1,29.87,SW,225,2.2,-999.0,82,-99.99,,,0.00,Acu-Link.com,2013-02-16 05:33:00,
2013-02-16 00:49:00,35.1,30.5,29.86,West,270,2.2,-999.0,83,-99.99,,,0.00,Acu-Link.com,2013-02-16 05:49:00,
2013-02-16 01:04:00,34.2,30.2,29.87,WSW,247,0.0,-999.0,85,-99.99,,,0.00,Acu-Link.com,2013-02-16 06:04:00,
2013-02-16 01:20:00,33.3,29.6,29.86,ESE,112,0.0,-999.0,86,-99.99,,,0.00,Acu-Link.com,2013-02-16 06:20:00,
2013-02-16 01:35:00,32.2,29.3,29.86,SW,225,1.7,-999.0,89,-99.99,,,0.00,Acu-Link.com,2013-02-16 06:35:00,
2013-02-16 01:50:00,32.0,28.3,29.86,NNE,22,0.0,-999.0,86,-99.99,,,0.00,Acu-Link.com,2013-02-16 06:50:00,
2013-02-16 02:05:00,31.3,27.9,29.85,WSW,247,0.0,-999.0,87,-99.99,,,0.00,Acu-Link.com,2013-02-16 07:05:00,
2013-02-16 02:21:00,30.6,28.0,29.85,West,270,1.1,-999.0,90,-99.99,,,0.00,Acu-Link.com,2013-02-16 07:21:00,
2013-02-16 02:36:00,30.4,28.1,29.84,East,90,0.0,-999.0,91,-99.99,,,0.00,Acu-Link.com,2013-02-16 07:36:00,
2013-02-16 02:51:00,30.2,27.6,29.84,SSW,202,0.0,-999.0,90,-99.99,,,0.00,Acu-Link.com,2013-02-16 07:51:00,
2013-02-16 03:07:00,28.9,27.7,29.83,West,270,0.0,-999.0,95,-99.99,,,0.00,Acu-Link.com,2013-02-16 08:07:00,
2013-02-16 03:22:00,29.1,27.6,29.82,West,270,1.1,-999.0,94,-99.99,,,0.00,Acu-Link.com,2013-02-16 08:22:00,
2013-02-16 03:37:00,29.1,28.1,29.82,SW,225,0.0,-999.0,96,-99.99,,,0.00,Acu-Link.com,2013-02-16 08:37:00,
2013-02-16 03:53:00,28.8,27.8,29.81,SW,225,0.0,-999.0,96,-99.99,,,0.00,Acu-Link.com,2013-02-16 08:53:00,
2013-02-16 04:18:00,28.9,27.9,29.81,WSW,247,0.0,-999.0,96,-99.99,,,0.00,Acu-Link.com,2013-02-16 09:18:00,
2013-02-16 04:33:00,29.1,27.9,29.80,SW,225,0.0,-999.0,95,-99.99,,,0.00,Acu-Link.com,2013-02-16 09:33:00,
2013-02-16 04:49:00,28.8,27.8,29.80,West,270,0.0,-999.0,96,-99.99,,,0.00,Acu-Link.com,2013-02-16 09:49:00,
2013-02-16 05:04:00,28.6,27.9,29.81,East,90,0.0,-999.0,97,-99.99,,,0.00,Acu-Link.com,2013-02-16 10:04:00,
2013-02-16 05:19:00,28.8,28.1,29.80,West,270,0.0,-999.0,97,-99.99,,,0.00,Acu-Link.com,2013-02-16 10:19:00,
2013-02-16 05:34:00,29.1,28.4,29.80,WSW,247,0.0,-999.0,97,-99.99,,,0.00,Acu-Link.com,2013-02-16 10:34:00,
2013-02-16 05:49:00,28.6,27.9,29.80,East,90,0.0,-999.0,97,-99.99,,,0.00,Acu-Link.com,2013-02-16 10:49:00,
2013-02-16 06:05:00,28.6,27.9,29.80,WSW,247,0.0,-999.0,97,-99.99,,,0.00,Acu-Link.com,2013-02-16 11:05:00,
2013-02-16 06:20:00,28.8,28.1,29.80,NE,45,0.0,-999.0,97,-99.99,,,0.00,Acu-Link.com,2013-02-16 11:20:00,
2013-02-16 06:35:00,28.6,28.1,29.80,SW,225,0.0,-999.0,98,-99.99,,,0.00,Acu-Link.com,2013-02-16 11:35:00,
2013-02-16 06:50:00,28.6,28.1,29.80,NE,45,0.0,-999.0,98,-99.99,,,0.00,Acu-Link.com,2013-02-16 11:50:00,
2013-02-16 07:06:00,28.8,28.1,29.80,East,90,0.0,-999.0,97,-99.99,,,0.00,Acu-Link.com,2013-02-16 12:06:00,
2013-02-16 07:21:00,28.4,27.9,29.80,ESE,112,1.7,-999.0,98,-99.99,,,0.00,Acu-Link.com,2013-02-16 12:21:00,
2013-02-16 07:36:00,29.1,27.9,29.80,WSW,247,2.2,-999.0,95,-99.99,,,0.00,Acu-Link.com,2013-02-16 12:36:00,
2013-02-16 07:52:00,30.7,27.3,29.80,SW,225,2.2,-999.0,87,-99.99,,,0.00,Acu-Link.com,2013-02-16 12:52:00,
2013-02-16 08:07:00,31.3,27.9,29.80,WSW,247,1.7,-999.0,87,-99.99,,,0.00,Acu-Link.com,2013-02-16 13:07:00,
2013-02-16 08:22:00,31.8,27.5,29.79,WSW,247,1.7,-999.0,84,-99.99,,,0.00,Acu-Link.com,2013-02-16 13:22:00,
2013-02-16 08:38:00,31.8,27.2,29.80,SW,225,3.7,-999.0,83,-99.99,,,0.00,Acu-Link.com,2013-02-16 13:38:00,
2013-02-16 08:53:00,32.4,27.8,29.80,WSW,247,2.7,-999.0,83,-99.99,,,0.00,Acu-Link.com,2013-02-16 13:53:00,
2013-02-16 09:08:00,32.5,27.3,29.80,SW,225,5.3,-999.0,81,-99.99,,,0.00,Acu-Link.com,2013-02-16 14:08:00,
2013-02-16 09:24:00,32.9,26.5,29.79,WSW,247,3.2,-999.0,77,-99.99,,,0.00,Acu-Link.com,2013-02-16 14:24:00,
2013-02-16 09:39:00,33.4,26.0,29.79,SW,225,6.8,-999.0,74,-99.99,,,0.00,Acu-Link.com,2013-02-16 14:39:00,
2013-02-16 09:54:00,32.9,25.5,29.80,WSW,247,5.8,-999.0,74,-99.99,,,0.00,Acu-Link.com,2013-02-16 14:54:00,
2013-02-16 10:09:00,32.7,25.3,29.80,SW,225,5.3,-999.0,74,-99.99,,,0.00,Acu-Link.com,2013-02-16 15:09:00,
2013-02-16 10:24:00,32.5,25.8,29.80,SW,225,4.2,-999.0,76,-99.99,,,0.00,Acu-Link.com,2013-02-16 15:24:00,
2013-02-16 10:40:00,34.7,28.2,29.80,SW,225,3.7,-999.0,77,-99.99,,,0.00,Acu-Link.com,2013-02-16 15:40:00,
2013-02-16 10:55:00,34.7,24.5,29.80,West,270,2.2,-999.0,66,-99.99,,,0.00,Acu-Link.com,2013-02-16 15:55:00,
2013-02-16 11:11:00,34.5,22.1,29.80,NE,45,4.7,-999.0,60,-99.99,,,0.00,Acu-Link.com,2013-02-16 16:11:00,
2013-02-16 11:26:00,35.8,23.7,29.81,SW,225,1.7,-999.0,61,-99.99,,,0.00,Acu-Link.com,2013-02-16 16:26:00,
2013-02-16 11:42:00,36.5,22.3,29.80,SW,225,5.3,-999.0,56,-99.99,,,0.00,Acu-Link.com,2013-02-16 16:42:00,
2013-02-16 11:57:00,34.5,20.0,29.80,SSW,202,4.2,-999.0,55,-99.99,,,0.00,Acu-Link.com,2013-02-16 16:57:00,
2013-02-16 12:12:00,36.9,22.3,29.80,WSW,247,4.2,-999.0,55,-99.99,,,0.00,Acu-Link.com,2013-02-16 17:12:00,
2013-02-16 12:28:00,38.5,22.9,29.80,SE,135,1.7,-999.0,53,-99.99,,,0.00,Acu-Link.com,2013-02-16 17:28:00,
2013-02-16 12:43:00,35.1,19.7,29.80,SW,225,4.2,-999.0,53,-99.99,,,0.00,Acu-Link.com,2013-02-16 17:43:00,
2013-02-16 12:59:00,36.1,21.1,29.79,SW,225,15.0,-999.0,54,-99.99,,,0.00,Acu-Link.com,2013-02-16 17:59:00,
2013-02-16 13:14:00,34.9,18.2,29.79,WSW,247,6.3,-999.0,50,-99.99,,,0.00,Acu-Link.com,2013-02-16 18:14:00,
2013-02-16 13:29:00,35.6,15.9,29.79,ENE,67,4.7,-999.0,44,-99.99,,,0.00,Acu-Link.com,2013-02-16 18:29:00,
2013-02-16 13:44:00,34.7,16.1,29.78,ESE,112,5.8,-999.0,46,-99.99,,,0.00,Acu-Link.com,2013-02-16 18:44:00,
2013-02-16 14:00:00,33.6,14.6,29.78,SSW,202,5.8,-999.0,45,-99.99,,,0.00,Acu-Link.com,2013-02-16 19:00:00,
2013-02-16 14:15:00,35.1,16.4,29.79,NE,45,2.7,-999.0,46,-99.99,,,0.00,Acu-Link.com,2013-02-16 19:15:00,
2013-02-16 14:30:00,33.4,13.9,29.79,East,90,9.9,-999.0,44,-99.99,,,0.00,Acu-Link.com,2013-02-16 19:30:00,
2013-02-16 14:45:00,32.4,16.3,29.79,East,90,6.3,-999.0,51,-99.99,,,0.00,Acu-Link.com,2013-02-16 19:45:00,
2013-02-16 15:01:00,31.6,15.1,29.79,South,180,2.2,-999.0,50,-99.99,,,0.00,Acu-Link.com,2013-02-16 20:01:00,
2013-02-16 15:16:00,32.5,17.3,29.79,East,90,8.9,-999.0,53,-99.99,,,0.00,Acu-Link.com,2013-02-16 20:16:00,
2013-02-16 15:31:00,30.6,18.0,29.80,ENE,67,4.2,-999.0,59,-99.99,,,0.00,Acu-Link.com,2013-02-16 20:31:00,
2013-02-16 15:47:00,28.8,18.9,29.80,WNW,292,3.7,-999.0,66,-99.99,,,0.00,Acu-Link.com,2013-02-16 20:47:00,
2013-02-16 16:02:00,29.7,19.4,29.80,SW,225,5.8,-999.0,65,-99.99,,,0.00,Acu-Link.com,2013-02-16 21:02:00,
2013-02-16 16:17:00,30.2,19.1,29.81,SW,225,2.2,-999.0,63,-99.99,,,0.00,Acu-Link.com,2013-02-16 21:17:00,
2013-02-16 16:33:00,30.7,20.4,29.81,South,180,5.3,-999.0,65,-99.99,,,0.00,Acu-Link.com,2013-02-16 21:33:00,
2013-02-16 16:48:00,30.2,17.6,29.82,WNW,292,1.7,-999.0,59,-99.99,,,0.00,Acu-Link.com,2013-02-16 21:48:00,
2013-02-16 17:03:00,28.2,20.7,29.82,NW,315,4.7,-999.0,73,-99.99,,,0.00,Acu-Link.com,2013-02-16 22:03:00,
2013-02-16 17:18:00,28.0,21.7,29.82,WNW,292,2.7,-999.0,77,-99.99,,,0.00,Acu-Link.com,2013-02-16 22:18:00,
2013-02-16 17:33:00,27.7,20.8,29.82,East,90,5.3,-999.0,75,-99.99,,,0.00,Acu-Link.com,2013-02-16 22:33:00,
2013-02-16 17:49:00,25.5,23.8,29.83,ESE,112,2.2,-999.0,93,-99.99,,,0.00,Acu-Link.com,2013-02-16 22:49:00,
2013-02-16 18:04:00,24.6,21.0,29.83,SW,225,3.2,-999.0,86,-99.99,,,0.00,Acu-Link.com,2013-02-16 23:04:00,
2013-02-16 18:19:00,24.1,19.4,29.83,West,270,0.0,-999.0,82,-99.99,,,0.00,Acu-Link.com,2013-02-16 23:19:00,
2013-02-16 18:34:00,23.5,18.8,29.85,West,270,2.2,-999.0,82,-99.99,,,0.00,Acu-Link.com,2013-02-16 23:34:00,
2013-02-16 18:49:00,24.1,20.5,29.85,ESE,112,2.2,-999.0,86,-99.99,,,0.00,Acu-Link.com,2013-02-16 23:49:00,
2013-02-16 19:05:00,24.1,21.6,29.86,WNW,292,2.7,-999.0,90,-99.99,,,0.00,Acu-Link.com,2013-02-17 00:05:00,
2013-02-16 19:20:00,23.9,22.2,29.86,SSW,202,2.2,-999.0,93,-99.99,,,0.00,Acu-Link.com,2013-02-17 00:20:00,
2013-02-16 19:35:00,23.5,21.3,29.86,East,90,0.0,-999.0,91,-99.99,,,0.00,Acu-Link.com,2013-02-17 00:35:00,
2013-02-16 19:51:00,23.5,20.7,29.86,ESE,112,2.7,-999.0,89,-99.99,,,0.00,Acu-Link.com,2013-02-17 00:51:00,
2013-02-16 20:06:00,23.0,19.4,29.87,SE,135,3.7,-999.0,86,-99.99,,,0.00,Acu-Link.com,2013-02-17 01:06:00,
2013-02-16 20:21:00,23.4,18.2,29.88,ESE,112,3.7,-999.0,80,-99.99,,,0.00,Acu-Link.com,2013-02-17 01:21:00,
2013-02-16 20:36:00,23.7,17.6,29.89,ENE,67,3.7,-999.0,77,-99.99,,,0.00,Acu-Link.com,2013-02-17 01:36:00,
2013-02-16 20:51:00,23.9,17.5,29.89,South,180,1.1,-999.0,76,-99.99,,,0.00,Acu-Link.com,2013-02-17 01:51:00,
2013-02-16 21:07:00,24.1,17.0,29.89,SSW,202,2.7,-999.0,74,-99.99,,,0.00,Acu-Link.com,2013-02-17 02:07:00,
2013-02-16 21:22:00,23.7,16.3,29.90,ENE,67,6.3,-999.0,73,-99.99,,,0.00,Acu-Link.com,2013-02-17 02:22:00,
2013-02-16 21:37:00,24.1,14.8,29.89,NNE,22,2.2,-999.0,67,-99.99,,,0.00,Acu-Link.com,2013-02-17 02:37:00,
2013-02-16 21:52:00,24.1,13.7,29.91,West,270,6.8,-999.0,64,-99.99,,,0.00,Acu-Link.com,2013-02-17 02:52:00,
2013-02-16 22:07:00,24.3,12.4,29.91,SW,225,4.2,-999.0,60,-99.99,,,0.00,Acu-Link.com,2013-02-17 03:07:00,
2013-02-16 22:22:00,24.4,13.3,29.91,West,270,6.8,-999.0,62,-99.99,,,0.00,Acu-Link.com,2013-02-17 03:22:00,
2013-02-16 22:38:00,24.4,11.8,29.91,WSW,247,4.7,-999.0,58,-99.99,,,0.00,Acu-Link.com,2013-02-17 03:38:00,
2013-02-16 22:53:00,23.7,11.9,29.92,West,270,2.7,-999.0,60,-99.99,,,0.00,Acu-Link.com,2013-02-17 03:53:00,
2013-02-16 23:08:00,23.0,11.9,29.92,East,90,0.0,-999.0,62,-99.99,,,0.00,Acu-Link.com,2013-02-17 04:08:00,
2013-02-16 23:24:00,22.3,12.7,29.91,NE,45,0.0,-999.0,66,-99.99,,,0.00,Acu-Link.com,2013-02-17 04:24:00,
2013-02-16 23:39:00,22.3,10.2,29.92,West,270,4.2,-999.0,59,-99.99,,,0.00,Acu-Link.com,2013-02-17 04:39:00,
2013-02-16 23:54:00,22.6,8.5,29.92,South,180,2.2,-999.0,54,-99.99,,,0.00,Acu-Link.com,2013-02-17 04:54:00,